Time;durP1;ratioP1;P1;durP2;ratioP2;P2;SDS_P1;SDS_P2;PMS_P1;PMS_P2;Temp;Humidity;BMP_temperature;BMP_pressure;BME280_temperature;BME280_humidity;BME280_pressure;Samples;Min_cycle;Max_cycle;Signal;HPM_P1;HPM_P2
2023/06/06 00:00:09;;;;;;;10.38;3.10;;;;;;;8.76;53.27;102248.75;5051992;28;20040;-71
2023/06/06 00:02:43;;;;;;;7.72;3.55;;;;;;;8.96;53.17;102243.31;5048795;27;20040;-71
2023/06/06 00:05:13;;;;;;;9.20;3.33;;;;;;;9.02;53.00;102238.91;5058233;28;20032;-75
2023/06/06 00:07:43;;;;;;;5.13;2.22;;;;;;;9.10;52.32;102237.09;5048805;27;20835;-73
2023/06/06 00:10:10;;;;;;;10.32;2.95;;;;;;;8.89;53.70;102238.19;5050768;28;20487;-77
2023/06/06 00:12:37;;;;;;;6.93;2.55;;;;;;;9.10;52.99;102237.09;5054347;27;20238;-76
2023/06/06 00:15:05;;;;;;;8.43;2.90;;;;;;;8.76;53.88;102232.22;5056101;28;20039;-77
2023/06/06 00:17:31;;;;;;;10.57;3.35;;;;;;;8.77;53.72;102236.59;5052685;27;20404;-78
2023/06/06 00:19:57;;;;;;;12.40;3.10;;;;;;;9.01;53.47;102235.44;5055487;28;20497;-79
2023/06/06 00:22:23;;;;;;;12.32;2.80;;;;;;;9.01;53.48;102234.56;5052145;27;20050;-72
2023/06/06 00:24:49;;;;;;;7.55;2.58;;;;;;;8.95;53.34;102236.38;5092285;27;20379;-73
2023/06/06 00:27:15;;;;;;;5.65;2.60;;;;;;;8.95;53.55;102228.53;5066765;28;20330;-73
2023/06/06 00:29:40;;;;;;;7.93;3.65;;;;;;;8.84;53.66;102227.81;5063372;28;20036;-73
2023/06/06 00:32:06;;;;;;;6.57;2.78;;;;;;;8.93;53.75;102219.03;5074141;28;20036;-73
2023/06/06 00:34:32;;;;;;;9.25;3.13;;;;;;;8.72;53.99;102217.53;5068975;28;20182;-74
2023/06/06 00:36:57;;;;;;;9.10;3.00;;;;;;;8.63;54.53;102217.56;5058087;28;20028;-73
2023/06/06 00:39:23;;;;;;;7.13;3.00;;;;;;;8.98;53.75;102225.91;5066192;28;20159;-74
2023/06/06 00:41:49;;;;;;;7.25;2.03;;;;;;;8.88;53.82;102221.69;5071818;28;20030;-70
2023/06/06 00:44:15;;;;;;;7.72;2.75;;;;;;;8.77;54.16;102220.94;5068155;28;20032;-71
2023/06/06 00:46:43;;;;;;;8.57;3.08;;;;;;;8.77;53.84;102210.50;5075855;28;20035;-70
2023/06/06 00:49:12;;;;;;;7.35;2.35;;;;;;;8.60;54.40;102209.78;5081153;27;20040;-70
2023/06/06 00:51:39;;;;;;;4.22;2.67;;;;;;;8.70;54.14;102208.81;5079715;28;20498;-71
2023/06/06 00:54:07;;;;;;;8.25;3.55;;;;;;;8.57;54.57;102211.53;5075501;27;20093;-70
2023/06/06 00:56:36;;;;;;;8.98;2.85;;;;;;;8.39;55.00;102210.88;5069176;28;20181;-72
2023/06/06 00:59:03;;;;;;;10.52;3.67;;;;;;;8.69;54.12;102217.50;5074108;28;20070;-72
2023/06/06 01:01:33;;;;;;;8.35;2.63;;;;;;;8.43;55.14;102216.03;5071076;28;20070;-73
2023/06/06 01:04:07;;;;;;;17.58;3.13;;;;;;;8.62;54.64;102216.72;5072065;27;20074;-72
2023/06/06 01:06:35;;;;;;;8.98;2.67;;;;;;;8.60;54.72;102215.00;5068115;28;20027;-73
2023/06/06 01:09:05;;;;;;;7.90;3.13;;;;;;;8.74;54.30;102221.84;5072018;28;20469;-75
2023/06/06 01:11:49;;;;;;;6.07;3.40;;;;;;;8.63;54.67;102221.06;5061376;28;20044;-72
2023/06/06 01:14:54;;;;;;;5.50;2.58;;;;;;;8.62;54.68;102226.28;5083211;27;20442;-73
2023/06/06 01:17:25;;;;;;;10.52;3.38;;;;;;;8.70;54.25;102222.72;5062900;27;20107;-73
2023/06/06 01:19:53;;;;;;;7.85;4.05;;;;;;;8.75;53.88;102218.34;5076438;28;20032;-73
2023/06/06 01:22:22;;;;;;;6.32;3.47;;;;;;;8.74;53.81;102224.44;5070198;28;20055;-73
2023/06/06 01:24:56;;;;;;;9.43;2.97;;;;;;;8.64;54.51;102224.53;5073078;28;20411;-70
2023/06/06 01:27:23;;;;;;;7.80;3.25;;;;;;;8.55;54.14;102222.88;5066928;27;20673;-70
2023/06/06 01:29:50;;;;;;;8.32;3.78;;;;;;;8.69;53.82;102220.13;5069110;28;20563;-72
2023/06/06 01:32:22;;;;;;;11.68;3.40;;;;;;;8.49;54.53;102215.97;5072124;28;20726;-71
2023/06/06 01:35:00;;;;;;;6.80;2.97;;;;;;;8.47;54.40;102215.13;5071305;28;20067;-70
2023/06/06 01:37:48;;;;;;;6.80;2.83;;;;;;;8.44;54.92;102215.16;5072849;27;20074;-72
2023/06/06 01:40:18;;;;;;;9.32;2.92;;;;;;;8.47;54.25;102212.53;5102519;27;20043;-71
2023/06/06 01:42:47;;;;;;;7.70;2.78;;;;;;;8.50;54.35;102212.50;5069361;28;20044;-71
2023/06/06 01:45:16;;;;;;;10.57;3.35;;;;;;;8.47;54.67;102217.75;5074833;28;20024;-71
2023/06/06 01:47:42;;;;;;;6.90;2.75;;;;;;;8.37;54.75;102223.91;5073376;28;20040;-71
2023/06/06 01:50:08;;;;;;;9.65;3.05;;;;;;;8.42;54.73;102221.25;5071038;28;20043;-72
2023/06/06 01:52:35;;;;;;;7.40;2.55;;;;;;;8.46;54.58;102226.44;5067566;27;20166;-71
2023/06/06 01:55:01;;;;;;;12.65;3.25;;;;;;;8.51;54.46;102224.63;5056502;28;20070;-71
2023/06/06 01:57:28;;;;;;;6.05;2.83;;;;;;;8.36;54.97;102227.41;5068519;28;20036;-70
2023/06/06 01:59:54;;;;;;;4.90;2.42;;;;;;;8.50;54.28;102227.28;5071518;28;20654;-71
2023/06/06 02:02:23;;;;;;;5.68;2.67;;;;;;;8.52;54.26;102233.34;5071863;27;20047;-71
2023/06/06 02:04:48;;;;;;;5.90;2.83;;;;;;;8.53;54.02;102225.47;5075924;28;20034;-71
2023/06/06 02:07:16;;;;;;;14.48;2.95;;;;;;;8.39;54.25;102235.19;5071785;28;20428;-71
2023/06/06 02:09:43;;;;;;;7.72;2.90;;;;;;;8.37;54.47;102231.72;5101157;27;20740;-71
2023/06/06 02:12:10;;;;;;;12.07;3.63;;;;;;;8.41;54.47;102230.81;5060706;28;20118;-74
2023/06/06 02:14:35;;;;;;;8.55;3.55;;;;;;;8.39;54.46;102235.19;5072366;27;21217;-74
2023/06/06 02:17:03;;;;;;;12.18;4.32;;;;;;;8.46;54.67;102236.00;5082617;27;20525;-73
2023/06/06 02:19:31;;;;;;;12.75;3.75;;;;;;;8.41;54.66;102236.03;5066414;28;20051;-75
2023/06/06 02:21:56;;;;;;;8.05;3.15;;;;;;;8.50;54.47;102233.34;5078760;27;20046;-78
2023/06/06 02:24:24;;;;;;;5.78;3.70;;;;;;;8.38;54.74;102232.59;5078699;28;20036;-75
2023/06/06 02:26:54;;;;;;;7.97;3.47;;;;;;;8.45;54.82;102236.84;5078866;27;20571;-74
2023/06/06 02:29:24;;;;;;;8.82;3.42;;;;;;;8.47;54.51;102237.72;5073171;27;20039;-75
2023/06/06 02:31:51;;;;;;;7.40;3.72;;;;;;;8.53;54.34;102242.88;5078046;28;20043;-75
2023/06/06 02:34:17;;;;;;;5.68;3.08;;;;;;;8.31;54.62;102226.56;5064231;28;20144;-74
2023/06/06 02:36:43;;;;;;;11.88;3.90;;;;;;;8.33;54.41;102220.47;5089739;27;20129;-74
2023/06/06 02:39:09;;;;;;;4.75;3.53;;;;;;;8.27;54.74;102224.84;5074709;28;20054;-73
2023/06/06 02:41:35;;;;;;;8.10;3.20;;;;;;;8.20;55.41;102231.00;5057006;28;20035;-74
2023/06/06 02:44:01;;;;;;;9.45;3.65;;;;;;;8.35;55.09;102226.53;5091331;27;20113;-73
2023/06/06 02:46:30;;;;;;;8.40;2.90;;;;;;;8.37;54.60;102229.13;5071103;27;20398;-74
2023/06/06 02:48:56;;;;;;;7.03;4.20;;;;;;;8.18;55.26;102225.78;5076215;27;20412;-74
2023/06/06 02:51:23;;;;;;;13.15;4.00;;;;;;;8.36;54.54;102230.00;5076483;27;20046;-74
2023/06/06 02:53:51;;;;;;;6.30;3.58;;;;;;;8.38;54.93;102228.22;5077410;28;20040;-74
2023/06/06 02:56:17;;;;;;;8.23;3.92;;;;;;;8.15;55.33;102226.69;5074011;27;20750;-74
2023/06/06 02:58:45;;;;;;;10.80;4.10;;;;;;;8.10;55.29;102232.84;5070047;27;20035;-74
2023/06/06 03:01:14;;;;;;;14.85;4.57;;;;;;;8.22;54.77;102227.50;5108335;27;20500;-73
2023/06/06 03:03:41;;;;;;;19.15;4.80;;;;;;;8.25;54.89;102227.50;5102612;27;20046;-74
2023/06/06 03:06:06;;;;;;;14.88;4.90;;;;;;;8.25;54.70;102224.00;5108533;27;20036;-73
2023/06/06 03:08:33;;;;;;;8.88;3.92;;;;;;;8.18;54.59;102220.59;5072744;28;20039;-73
2023/06/06 03:10:59;;;;;;;14.73;5.00;;;;;;;8.23;54.43;102233.59;5077580;28;20027;-74
2023/06/06 03:13:25;;;;;;;11.75;5.28;;;;;;;8.40;54.20;102236.91;5072471;28;20063;-74
2023/06/06 03:15:52;;;;;;;10.65;3.65;;;;;;;8.30;54.44;102230.91;5065468;28;20051;-75
2023/06/06 03:18:20;;;;;;;9.20;3.75;;;;;;;8.21;54.91;102224.94;5076957;27;20044;-74
2023/06/06 03:20:51;;;;;;;10.10;3.80;;;;;;;8.33;54.41;102235.22;5074716;28;20057;-69
2023/06/06 03:23:18;;;;;;;7.40;3.65;;;;;;;8.26;55.19;102228.34;5073132;28;20043;-69
2023/06/06 03:25:45;;;;;;;8.40;3.50;;;;;;;8.28;54.75;102230.06;5074491;28;20027;-69
2023/06/06 03:28:12;;;;;;;16.13;4.80;;;;;;;8.33;54.90;102230.88;5088861;27;20189;-70
2023/06/06 03:30:39;;;;;;;16.40;4.22;;;;;;;8.15;54.82;102231.91;5091494;27;20032;-69
2023/06/06 03:33:07;;;;;;;13.75;4.90;;;;;;;8.38;54.52;102229.97;5071508;28;20534;-73
2023/06/06 03:35:35;;;;;;;12.68;4.63;;;;;;;8.27;55.11;102230.97;5089224;27;20035;-74
2023/06/06 03:38:03;;;;;;;14.85;3.85;;;;;;;8.27;55.11;102224.84;5086306;27;20032;-79
2023/06/06 03:40:28;;;;;;;7.82;3.88;;;;;;;7.83;56.49;102228.69;5075910;27;20096;-76
2023/06/06 03:42:54;;;;;;;12.13;4.93;;;;;;;8.21;55.61;102225.78;5097463;27;20039;-77
2023/06/06 03:45:22;;;;;;;8.73;3.90;;;;;;;8.35;54.77;102231.72;5080690;27;20032;-72
2023/06/06 03:47:51;;;;;;;16.55;3.88;;;;;;;8.26;55.96;102224.00;5072343;27;20035;-74
2023/06/06 03:50:21;;;;;;;11.88;4.55;;;;;;;8.42;55.22;102229.94;5090860;27;20085;-77
2023/06/06 03:52:47;;;;;;;11.60;4.32;;;;;;;8.50;54.94;102222.91;5079502;27;20251;-76
2023/06/06 03:55:13;;;;;;;14.40;3.67;;;;;;;8.41;55.39;102225.63;5062866;28;20509;-74
2023/06/06 03:57:40;;;;;;;11.23;2.97;;;;;;;8.64;54.82;102229.72;5080629;27;20047;-73
2023/06/06 04:00:12;;;;;;;7.68;3.55;;;;;;;8.92;54.37;102227.75;5066283;28;20036;-73
2023/06/06 04:02:46;;;;;;;5.72;2.53;;;;;;;8.69;54.95;102227.94;5079375;27;20118;-71
2023/06/06 04:05:12;;;;;;;10.57;3.17;;;;;;;8.84;54.61;102225.19;5092545;27;20051;-71
2023/06/06 04:07:39;;;;;;;8.68;4.30;;;;;;;8.92;54.46;102231.19;5073202;27;20044;-72
2023/06/06 04:10:05;;;;;;;7.47;2.60;;;;;;;8.92;54.49;102230.34;5106909;27;20039;-75
2023/06/06 04:12:31;;;;;;;4.80;2.95;;;;;;;8.95;54.53;102225.94;5106295;27;20044;-75
2023/06/06 04:14:57;;;;;;;6.97;2.70;;;;;;;9.22;53.61;102236.91;5074277;27;20573;-75
2023/06/06 04:17:24;;;;;;;10.45;3.13;;;;;;;9.30;53.61;102232.47;5083125;27;20118;-75
2023/06/06 04:19:51;;;;;;;7.70;2.70;;;;;;;9.30;53.85;102239.44;5080752;28;20027;-75
2023/06/06 04:22:18;;;;;;;11.52;3.17;;;;;;;9.18;53.92;102233.47;5060383;27;20039;-78
2023/06/06 04:24:44;;;;;;;11.65;2.80;;;;;;;9.17;53.86;102242.19;5085894;27;20318;-76
2023/06/06 04:27:10;;;;;;;8.63;3.15;;;;;;;9.31;53.31;102242.03;5079333;27;20136;-76
2023/06/06 04:29:36;;;;;;;8.10;2.53;;;;;;;9.40;53.19;102233.22;5069587;28;20043;-75
2023/06/06 04:32:07;;;;;;;8.65;3.15;;;;;;;9.26;53.66;102236.00;5058754;28;20035;-75
2023/06/06 04:34:35;;;;;;;19.60;3.65;;;;;;;9.57;53.00;102240.81;5095752;27;20043;-76
2023/06/06 04:37:04;;;;;;;9.20;2.90;;;;;;;9.51;53.29;102239.16;5055053;28;20032;-75
2023/06/06 04:39:33;;;;;;;7.72;2.83;;;;;;;9.73;52.38;102242.31;5073138;27;20046;-74
2023/06/06 04:42:03;;;;;;;9.02;3.38;;;;;;;9.69;52.83;102240.63;5072053;27;20063;-72
2023/06/06 04:44:29;;;;;;;8.55;3.38;;;;;;;9.73;52.58;102241.47;5061897;27;20121;-72
2023/06/06 04:47:00;;;;;;;12.35;3.15;;;;;;;9.93;52.17;102233.38;5060983;28;20119;-65
2023/06/06 04:49:43;;;;;;;7.20;3.05;;;;;;;10.20;51.81;102238.13;5069025;27;20040;-66
2023/06/06 04:52:12;;;;;;;8.57;2.88;;;;;;;10.28;51.55;102230.19;5080964;27;20032;-66
2023/06/06 04:54:40;;;;;;;8.23;2.85;;;;;;;10.20;51.49;102227.69;5069655;27;20035;-71
2023/06/06 04:57:08;;;;;;;14.30;2.30;;;;;;;10.36;51.60;102227.41;5072582;27;20757;-70
2023/06/06 04:59:35;;;;;;;9.93;2.95;;;;;;;10.34;51.38;102232.66;5103917;27;22678;-71
2023/06/06 05:02:06;;;;;;;10.50;2.25;;;;;;;10.82;50.17;102231.84;5073315;27;20631;-67
2023/06/06 05:04:31;;;;;;;8.00;2.50;;;;;;;11.72;48.20;102228.19;5073360;27;20048;-68
2023/06/06 05:06:58;;;;;;;7.15;1.80;;;;;;;11.92;46.46;102223.34;5104182;27;20049;-69
2023/06/06 05:09:24;;;;;;;19.58;3.25;;;;;;;12.50;45.64;102232.34;5069176;27;20040;-67
2023/06/06 05:11:52;;;;;;;9.20;2.00;;;;;;;12.34;45.89;102224.94;5071279;27;20039;-67
2023/06/06 05:14:23;;;;;;;9.65;2.10;;;;;;;12.04;46.03;102237.91;5071589;27;20035;-68
2023/06/06 05:16:56;;;;;;;4.65;2.35;;;;;;;11.60;47.42;102234.56;5071235;28;20174;-68
2023/06/06 05:19:21;;;;;;;12.43;2.60;;;;;;;11.59;47.56;102232.84;5067732;27;20519;-70
2023/06/06 05:21:50;;;;;;;11.93;2.67;;;;;;;11.70;47.23;102229.97;5068625;27;20032;-73
2023/06/06 05:24:15;;;;;;;8.45;3.10;;;;;;;12.56;45.92;102225.22;5101172;27;20097;-73
2023/06/06 05:26:41;;;;;;;7.07;3.38;;;;;;;13.26;44.05;102222.41;5075775;27;20508;-78
2023/06/06 05:29:08;;;;;;;10.50;2.30;;;;;;;13.57;42.59;102222.38;5068020;27;20598;-67
2023/06/06 05:31:33;;;;;;;6.28;2.35;;;;;;;14.34;41.51;102228.59;5060188;28;20173;-70
2023/06/06 05:34:00;;;;;;;9.02;2.30;;;;;;;14.05;41.67;102213.78;5071483;28;20520;-67
2023/06/06 05:36:26;;;;;;;6.93;2.30;;;;;;;14.94;40.72;102225.59;5069261;28;20055;-69
2023/06/06 05:38:52;;;;;;;9.25;2.33;;;;;;;15.98;38.31;102225.97;5069142;27;20127;-71
2023/06/06 05:41:20;;;;;;;3.75;1.42;;;;;;;14.96;38.67;102237.78;5071179;27;20215;-73
2023/06/06 05:43:47;;;;;;;4.65;1.40;;;;;;;14.17;41.19;102237.97;5066828;28;20131;-72
2023/06/06 05:46:12;;;;;;;10.15;2.15;;;;;;;13.88;41.17;102242.41;5068937;28;20504;-73
2023/06/06 05:48:38;;;;;;;6.60;2.08;;;;;;;14.79;39.96;102239.31;5069630;28;20039;-75
2023/06/06 05:51:04;;;;;;;4.65;1.58;;;;;;;15.68;39.27;102241.25;5074057;28;20031;-77
2023/06/06 05:53:30;;;;;;;12.48;2.17;;;;;;;14.82;38.89;102242.72;5074288;28;20482;-77
2023/06/06 05:55:58;;;;;;;7.00;1.77;;;;;;;14.15;40.30;102245.91;5074024;28;20027;-77
2023/06/06 05:58:23;;;;;;;3.80;1.83;;;;;;;13.44;41.87;102249.88;5061234;28;20536;-76
2023/06/06 06:00:49;;;;;;;6.88;1.73;;;;;;;12.51;43.89;102254.19;5077423;28;20143;-75
2023/06/06 06:03:15;;;;;;;7.35;2.20;;;;;;;12.13;44.42;102252.56;5078577;28;20043;-78
2023/06/06 06:05:40;;;;;;;13.82;2.15;;;;;;;11.90;45.77;102255.75;5079006;28;20042;-78
2023/06/06 06:08:06;;;;;;;5.93;1.73;;;;;;;11.57;46.47;102255.56;5076024;28;20639;-76
2023/06/06 06:10:33;;;;;;;5.30;2.10;;;;;;;13.95;41.63;102249.19;5077340;28;20028;-76
2023/06/06 06:12:59;;;;;;;11.73;2.22;;;;;;;13.98;41.05;102249.06;5070423;28;20051;-74
2023/06/06 06:15:25;;;;;;;6.07;1.50;;;;;;;14.33;39.79;102241.78;5071164;28;20204;-73
2023/06/06 06:17:51;;;;;;;6.25;1.92;;;;;;;13.50;41.35;102255.81;5068459;28;20092;-73
2023/06/06 06:20:19;;;;;;;8.60;1.92;;;;;;;12.90;42.89;102251.44;5070991;28;20201;-73
2023/06/06 06:22:45;;;;;;;5.72;1.90;;;;;;;12.82;42.85;102256.88;5070388;28;20064;-71
2023/06/06 06:25:14;;;;;;;5.45;2.10;;;;;;;13.87;41.06;102252.03;5070844;28;20031;-72
2023/06/06 06:27:40;;;;;;;6.47;1.65;;;;;;;13.53;41.68;102263.56;5068617;28;20483;-73
2023/06/06 06:30:09;;;;;;;5.28;2.55;;;;;;;13.65;41.74;102261.50;5067411;28;20039;-71
2023/06/06 06:32:36;;;;;;;6.93;2.35;;;;;;;14.72;39.31;102252.72;5086738;27;20944;-70
2023/06/06 06:35:03;;;;;;;5.18;1.50;;;;;;;15.37;37.68;102256.50;5061353;28;20032;-72
2023/06/06 06:37:30;;;;;;;5.25;1.05;;;;;;;16.95;34.87;102240.28;5067603;28;20121;-69
2023/06/06 06:39:59;;;;;;;6.63;1.95;;;;;;;18.57;31.84;102242.13;5068759;28;20747;-75
2023/06/06 06:42:25;;;;;;;6.53;1.98;;;;;;;19.32;30.84;102253.13;5070771;28;20078;-77
2023/06/06 06:45:09;;;;;;;8.18;1.80;;;;;;;18.38;32.52;102257.25;5050485;28;20023;-69
2023/06/06 06:47:35;;;;;;;6.32;1.83;;;;;;;17.98;32.85;102254.81;5062880;27;20039;-70
2023/06/06 06:50:01;;;;;;;6.07;1.52;;;;;;;18.44;30.97;102252.47;5061110;28;20032;-70
2023/06/06 06:52:27;;;;;;;3.40;1.35;;;;;;;18.42;31.35;102248.22;5069455;28;20047;-69
2023/06/06 06:54:57;;;;;;;5.57;1.42;;;;;;;18.35;31.08;102245.03;5065138;28;20056;-69
2023/06/06 06:57:26;;;;;;;4.75;1.60;;;;;;;19.35;30.83;102246.81;5079903;27;20783;-69
2023/06/06 06:59:56;;;;;;;7.50;1.27;;;;;;;19.40;29.93;102242.09;5070119;27;20929;-70
2023/06/06 07:02:30;;;;;;;3.42;1.55;;;;;;;18.91;31.15;102250.09;5074168;27;20767;-70
2023/06/06 07:05:01;;;;;;;7.13;1.77;;;;;;;19.30;30.45;102253.22;5070430;27;20020;-70
2023/06/06 07:07:26;;;;;;;5.00;1.38;;;;;;;19.20;30.59;102254.66;5076882;27;20067;-71
2023/06/06 07:09:52;;;;;;;9.95;2.25;;;;;;;19.90;29.32;102254.28;5072896;28;20856;-71
2023/06/06 07:12:19;;;;;;;4.40;1.48;;;;;;;20.47;29.41;102254.47;5073782;28;20280;-71
2023/06/06 07:14:45;;;;;;;3.45;1.05;;;;;;;19.98;28.83;102249.41;5068420;28;20038;-71
2023/06/06 07:17:10;;;;;;;4.90;1.15;;;;;;;20.82;27.26;102254.13;5107172;27;20031;-71
2023/06/06 07:19:36;;;;;;;4.30;1.67;;;;;;;21.53;27.35;102263.84;5073361;28;20600;-71
2023/06/06 07:22:05;;;;;;;4.88;1.55;;;;;;;20.62;27.72;102255.34;5075108;27;20118;-71
2023/06/06 07:24:32;;;;;;;4.50;1.80;;;;;;;21.58;26.90;102255.56;5074043;27;20040;-71
2023/06/06 07:26:59;;;;;;;11.45;2.55;;;;;;;20.16;28.11;102257.22;5074825;27;20036;-71
2023/06/06 07:29:26;;;;;;;8.75;2.40;;;;;;;20.77;28.18;102250.88;5069153;27;20039;-71
2023/06/06 07:31:54;;;;;;;5.55;2.22;;;;;;;21.09;27.35;102254.22;5072334;27;20057;-71
2023/06/06 07:34:20;;;;;;;10.68;1.92;;;;;;;21.69;26.21;102258.38;5071699;27;20113;-71
2023/06/06 07:36:46;;;;;;;5.38;1.73;;;;;;;22.27;25.63;102258.09;5104951;27;20740;-70
2023/06/06 07:39:11;;;;;;;3.85;1.40;;;;;;;21.32;26.62;102258.06;5082880;27;20071;-71
2023/06/06 07:41:39;;;;;;;3.92;1.42;;;;;;;20.94;26.76;102256.03;5070633;27;20396;-71
2023/06/06 07:44:04;;;;;;;3.65;1.30;;;;;;;21.70;26.36;102265.38;5071248;27;20666;-72
2023/06/06 07:46:30;;;;;;;3.72;1.50;;;;;;;22.45;25.28;102259.50;5073048;27;20046;-71
2023/06/06 07:48:55;;;;;;;8.00;1.70;;;;;;;22.31;25.48;102264.91;5068442;27;20103;-70
2023/06/06 07:51:21;;;;;;;4.35;1.88;;;;;;;20.64;27.58;102258.78;5072026;28;20175;-70
2023/06/06 07:53:46;;;;;;;5.18;1.75;;;;;;;21.54;26.22;102259.38;5074114;28;20047;-70
2023/06/06 07:59:59;;;;;;;3.55;1.40;;;;;;;20.69;28.50;102255.84;5067613;28;20113;-70
2023/06/06 08:02:25;;;;;;;6.18;1.58;;;;;;;20.91;28.40;102261.56;5070171;28;20036;-71
2023/06/06 08:04:50;;;;;;;4.20;1.85;;;;;;;21.67;26.73;102262.94;5066655;28;20024;-70
2023/06/06 08:07:18;;;;;;;4.30;2.30;;;;;;;22.80;25.63;102251.72;5098662;27;20122;-70
2023/06/06 08:09:43;;;;;;;4.32;2.00;;;;;;;23.11;25.24;102248.69;5070507;27;20731;-72
2023/06/06 08:12:10;;;;;;;4.13;1.65;;;;;;;23.41;24.11;102251.84;5067426;28;20039;-71
2023/06/06 08:14:38;;;;;;;5.72;1.70;;;;;;;21.79;26.42;102255.09;5069129;27;20046;-69
2023/06/06 08:17:05;;;;;;;6.30;1.67;;;;;;;21.40;27.04;102259.38;5067077;28;20059;-68
2023/06/06 08:19:30;;;;;;;6.53;3.20;;;;;;;21.49;26.87;102254.34;5077977;27;20032;-71
2023/06/06 08:21:58;;;;;;;8.75;2.35;;;;;;;22.36;25.64;102247.69;5065128;28;20811;-69
2023/06/06 08:24:24;;;;;;;4.57;1.83;;;;;;;22.76;26.08;102254.72;5075644;28;20207;-70
2023/06/06 08:26:51;;;;;;;7.32;2.42;;;;;;;22.89;25.84;102238.72;5069958;28;20742;-70
2023/06/06 08:29:17;;;;;;;9.02;2.10;;;;;;;23.35;25.15;102254.94;5067334;28;20586;-69
2023/06/06 08:31:45;;;;;;;6.25;2.05;;;;;;;21.64;26.77;102249.81;5070727;28;20027;-71
2023/06/06 08:34:11;;;;;;;3.50;1.45;;;;;;;22.37;26.30;102249.38;5066725;27;20876;-70
2023/06/06 08:36:38;;;;;;;5.53;2.05;;;;;;;22.86;25.32;102245.13;5069292;28;20369;-70
2023/06/06 08:39:06;;;;;;;5.75;1.75;;;;;;;23.36;24.77;102245.97;5067333;27;20301;-71
2023/06/06 08:41:33;;;;;;;4.47;1.85;;;;;;;22.57;25.49;102249.81;5071108;28;20035;-71
2023/06/06 08:44:02;;;;;;;3.78;1.77;;;;;;;22.82;25.75;102248.97;5068574;28;20683;-69
2023/06/06 08:46:32;;;;;;;4.20;1.92;;;;;;;22.70;25.84;102252.50;5069527;28;20118;-71
2023/06/06 08:49:02;;;;;;;9.10;2.03;;;;;;;22.51;25.31;102252.88;5088266;27;20134;-70
2023/06/06 08:51:28;;;;;;;6.13;1.83;;;;;;;21.72;26.64;102252.84;5067404;28;20118;-70
2023/06/06 08:53:55;;;;;;;8.45;2.65;;;;;;;21.53;26.76;102255.00;5066971;27;20130;-71
2023/06/06 08:56:22;;;;;;;6.28;2.67;;;;;;;21.06;27.90;102256.22;5070970;28;20302;-70
2023/06/06 08:58:50;;;;;;;8.85;3.30;;;;;;;20.48;28.81;102253.50;5058818;28;20040;-70
2023/06/06 09:01:17;;;;;;;7.00;2.50;;;;;;;20.25;28.83;102259.38;5067341;28;20298;-68
2023/06/06 09:03:46;;;;;;;7.60;2.55;;;;;;;20.50;28.80;102264.06;5068200;27;20290;-71
2023/06/06 09:06:12;;;;;;;5.38;2.17;;;;;;;20.24;29.46;102261.19;5067642;28;20031;-70
2023/06/06 09:08:41;;;;;;;8.55;2.75;;;;;;;20.65;28.66;102263.13;5066485;28;20040;-69
2023/06/06 09:11:06;;;;;;;6.47;2.28;;;;;;;20.83;28.82;102269.09;5069298;28;20051;-70
2023/06/06 09:13:34;;;;;;;13.70;3.13;;;;;;;21.28;28.31;102269.00;5069985;28;20044;-70
2023/06/06 09:16:06;;;;;;;4.15;2.47;;;;;;;20.99;27.81;102263.72;5065278;28;20036;-70
2023/06/06 09:18:35;;;;;;;6.30;2.95;;;;;;;21.23;27.74;102266.63;5068434;27;20548;-71
2023/06/06 09:21:05;;;;;;;6.13;2.20;;;;;;;20.76;28.51;102267.78;5067660;28;20024;-70
2023/06/06 09:23:31;;;;;;;8.27;2.92;;;;;;;20.28;28.90;102265.34;5067755;27;20039;-69
2023/06/06 09:25:57;;;;;;;4.30;2.25;;;;;;;20.19;29.15;102265.00;5066872;28;20732;-69
2023/06/06 09:28:36;;;;;;;6.38;2.60;;;;;;;20.35;28.87;102263.19;5066608;28;20993;-69
2023/06/06 09:31:23;;;;;;;8.70;2.30;;;;;;;20.20;29.54;102269.38;5083875;27;20047;-69
2023/06/06 09:33:54;;;;;;;7.57;2.42;;;;;;;19.35;31.02;102275.97;5069121;27;20113;-69
2023/06/06 09:36:24;;;;;;;4.75;2.35;;;;;;;19.65;30.15;102268.97;5072770;28;20036;-69
2023/06/06 09:38:55;;;;;;;5.25;1.55;;;;;;;19.91;29.83;102269.28;5057978;28;20039;-70
2023/06/06 09:41:23;;;;;;;10.43;2.42;;;;;;;19.36;30.58;102277.66;5072470;28;20074;-70
2023/06/06 09:43:49;;;;;;;10.20;2.80;;;;;;;18.02;33.13;102272.22;5072953;27;20607;-69
2023/06/06 09:46:16;;;;;;;8.30;2.90;;;;;;;18.61;32.17;102270.16;5099713;27;20054;-68
2023/06/06 09:48:41;;;;;;;7.35;3.67;;;;;;;18.82;31.60;102273.44;5067486;27;20342;-71
2023/06/06 09:51:11;;;;;;;9.60;2.80;;;;;;;18.79;32.18;102265.69;5068203;28;20135;-68
2023/06/06 09:53:37;;;;;;;8.10;2.85;;;;;;;19.18;31.15;102268.94;5097264;27;20138;-70
2023/06/06 09:56:06;;;;;;;8.57;2.80;;;;;;;18.82;32.11;102267.31;5067627;28;20027;-70
2023/06/06 09:58:35;;;;;;;8.45;3.60;;;;;;;18.36;32.06;102270.53;5068965;27;20043;-68
2023/06/06 10:01:02;;;;;;;6.18;3.10;;;;;;;17.53;34.15;102263.19;5078059;27;20035;-70
2023/06/06 10:03:30;;;;;;;4.95;3.13;;;;;;;17.67;34.56;102265.16;5071623;27;20162;-68
2023/06/06 10:05:55;;;;;;;8.02;3.75;;;;;;;17.48;34.64;102275.75;5074864;27;20474;-69
2023/06/06 10:08:23;;;;;;;13.23;4.25;;;;;;;17.49;34.43;102273.03;5055763;28;20394;-69
2023/06/06 10:10:49;;;;;;;11.60;3.33;;;;;;;17.58;34.78;102263.81;5069433;28;20062;-69
2023/06/06 10:13:24;;;;;;;13.38;4.65;;;;;;;17.96;33.26;102267.25;5063864;28;20040;-68
2023/06/06 10:15:50;;;;;;;8.82;3.78;;;;;;;17.39;34.65;102271.72;5068769;28;20031;-68
2023/06/06 10:18:16;;;;;;;8.40;3.75;;;;;;;17.85;33.83;102264.28;5064105;28;20035;-70
2023/06/06 10:20:45;;;;;;;5.32;3.50;;;;;;;17.35;34.85;102260.44;5070198;28;20488;-69
2023/06/06 10:23:11;;;;;;;8.48;3.03;;;;;;;18.35;33.67;102268.84;5065849;28;20036;-70
2023/06/06 10:25:37;;;;;;;6.25;2.88;;;;;;;18.25;33.35;102275.53;5067465;28;20043;-68
2023/06/06 10:28:12;;;;;;;6.53;2.08;;;;;;;18.32;33.23;102268.13;5061398;27;20031;-69
2023/06/06 10:30:41;;;;;;;7.38;2.90;;;;;;;18.35;32.59;102268.00;5069417;28;20054;-69
2023/06/06 10:33:42;;;;;;;5.13;2.33;;;;;;;18.51;33.80;102265.41;5070484;28;20044;-69
2023/06/06 10:36:15;;;;;;;6.35;3.15;;;;;;;18.34;32.88;102269.78;5073113;28;20035;-69
2023/06/06 10:38:43;;;;;;;6.13;3.08;;;;;;;18.48;32.30;102259.34;5068746;28;20082;-69
2023/06/06 10:41:18;;;;;;;5.95;3.08;;;;;;;18.35;33.22;102254.75;5053674;28;20089;-70
2023/06/06 10:43:46;;;;;;;8.40;2.70;;;;;;;17.80;33.68;102260.97;5069518;28;20705;-71
2023/06/06 10:46:14;;;;;;;10.23;3.03;;;;;;;18.30;33.42;102260.28;5071833;28;20040;-71
2023/06/06 10:48:43;;;;;;;4.97;3.10;;;;;;;17.99;33.14;102251.22;5069276;27;20047;-70
2023/06/06 10:51:31;;;;;;;8.35;2.90;;;;;;;18.49;32.86;102254.88;5070968;28;20290;-69
2023/06/06 10:54:33;;;;;;;8.27;3.38;;;;;;;18.44;33.05;102252.47;5077166;28;20483;-69
2023/06/06 10:56:59;;;;;;;9.48;2.78;;;;;;;18.21;33.51;102250.19;5037371;28;20819;-69
2023/06/06 10:59:31;;;;;;;8.63;2.47;;;;;;;18.62;32.81;102250.66;5063261;28;20048;-71
2023/06/06 11:01:58;;;;;;;8.60;3.83;;;;;;;18.86;32.83;102243.22;5070962;27;20423;-69
2023/06/06 11:04:27;;;;;;;8.32;3.53;;;;;;;18.15;33.43;102256.59;5069757;28;20210;-70
2023/06/06 11:06:58;;;;;;;6.30;3.33;;;;;;;17.89;34.14;102252.59;5068754;28;20027;-70
2023/06/06 11:09:32;;;;;;;5.65;2.90;;;;;;;18.02;33.50;102256.34;5069111;28;20035;-69
2023/06/06 11:12:23;;;;;;;5.93;2.17;;;;;;;18.11;34.06;102260.31;5105027;27;20055;-70
2023/06/06 11:15:03;;;;;;;8.73;2.72;;;;;;;18.09;33.27;102259.53;5071676;28;20122;-70
2023/06/06 11:17:50;;;;;;;4.30;2.03;;;;;;;18.25;33.04;102254.34;5066432;27;20023;-71
2023/06/06 11:20:20;;;;;;;4.43;2.47;;;;;;;17.87;33.03;102257.09;5074544;28;20088;-70
2023/06/06 11:22:51;;;;;;;4.00;2.10;;;;;;;17.96;34.16;102258.44;5069418;27;20088;-68
2023/06/06 11:25:21;;;;;;;5.43;1.70;;;;;;;17.83;34.46;102250.28;5074185;28;20040;-72
2023/06/06 11:27:49;;;;;;;5.60;2.90;;;;;;;17.74;33.72;102248.94;5057410;27;20119;-71
2023/06/06 11:30:17;;;;;;;7.88;2.72;;;;;;;18.56;33.05;102255.44;5071217;28;20032;-69
2023/06/06 11:32:46;;;;;;;5.43;2.13;;;;;;;19.16;31.66;102239.00;5059408;27;20039;-70
2023/06/06 11:35:17;;;;;;;4.40;2.33;;;;;;;18.86;31.64;102248.53;5071176;28;20139;-70